createdAt,value
2023-03-05T00:00:46.231Z,35.20
2023-03-05T00:05:50.720Z,35.30
2023-03-05T00:10:57.836Z,35.60
2023-03-05T00:16:03.698Z,35.40
2023-03-05T00:21:19.713Z,35.30
2023-03-05T00:26:25.714Z,35.50
2023-03-05T00:31:31.353Z,35.40
2023-03-05T00:36:39.984Z,35.40
2023-03-05T00:41:43.051Z,35.40
2023-03-05T00:46:46.227Z,35.40
2023-03-05T00:51:51.084Z,35.30
2023-03-05T00:56:54.196Z,35.40
2023-03-05T01:01:57.333Z,35.60
2023-03-05T01:07:01.955Z,35.50
2023-03-05T01:12:05.250Z,35.60
2023-03-05T01:17:08.798Z,35.50
2023-03-05T01:22:13.296Z,35.40
2023-03-05T01:27:16.482Z,35.50
2023-03-05T01:32:19.635Z,35.40
2023-03-05T01:37:24.332Z,35.40
2023-03-05T01:42:27.452Z,35.50
2023-03-05T01:47:30.696Z,35.40
2023-03-05T01:52:38.151Z,35.50
2023-03-05T01:57:47.043Z,35.60
2023-03-05T02:02:52.464Z,36.00
2023-03-05T02:07:58.091Z,35.60
2023-03-05T02:13:03.295Z,35.60
2023-03-05T02:18:07.368Z,35.60
2023-03-05T02:23:11.878Z,35.70
2023-03-05T02:28:19.729Z,35.60
2023-03-05T02:33:23.235Z,35.90
2023-03-05T02:38:28.137Z,35.50
2023-03-05T02:43:31.357Z,35.70
2023-03-05T02:48:35.032Z,35.70
2023-03-05T02:53:39.494Z,35.70
2023-03-05T02:58:43.029Z,35.80
2023-03-05T03:03:46.271Z,35.70
2023-03-05T03:08:50.770Z,35.60
2023-03-05T03:13:54.091Z,36.00
2023-03-05T03:18:57.157Z,35.90
2023-03-05T03:24:01.678Z,35.80
2023-03-05T03:29:04.799Z,35.90
2023-03-05T03:34:07.937Z,35.90
2023-03-05T03:39:14.065Z,35.90
2023-03-05T03:44:18.241Z,36.00
2023-03-05T03:49:24.154Z,35.80
2023-03-05T03:54:28.797Z,36.60
2023-03-05T03:59:32.022Z,36.00
2023-03-05T04:04:35.258Z,36.00
2023-03-05T04:09:40.041Z,36.10
2023-03-05T04:14:43.139Z,36.20
2023-03-05T04:19:46.293Z,36.10
2023-03-05T04:24:50.773Z,36.20
2023-03-05T04:29:53.842Z,36.40
2023-03-05T04:34:57.088Z,36.20
2023-03-05T04:40:01.597Z,36.20
2023-03-05T04:45:06.758Z,36.50
2023-03-05T04:50:11.955Z,36.30
2023-03-05T04:55:18.263Z,36.50
2023-03-05T05:00:21.845Z,36.70
2023-03-05T05:05:27.051Z,36.30
2023-03-05T05:10:31.701Z,36.50
2023-03-05T05:15:34.782Z,36.30
2023-03-05T05:20:37.857Z,36.30
2023-03-05T05:25:43.224Z,36.40
2023-03-05T05:30:46.321Z,36.40
2023-03-05T05:35:49.544Z,36.30
2023-03-05T05:40:54.093Z,36.30
2023-03-05T05:46:00.933Z,36.40
2023-03-05T05:51:07.352Z,36.60
2023-03-05T05:56:12.820Z,36.50
2023-03-05T06:01:17.765Z,36.50
2023-03-05T06:06:23.025Z,36.50
2023-03-05T06:11:27.653Z,36.50
2023-03-05T06:16:32.306Z,36.50
2023-03-05T06:21:35.412Z,36.40
2023-03-05T06:26:40.141Z,36.30
2023-03-05T06:31:43.402Z,36.40
2023-03-05T06:36:46.537Z,36.40
2023-03-05T06:41:53.414Z,36.50
2023-03-05T06:46:56.566Z,36.90
2023-03-05T06:51:59.800Z,36.60
2023-03-05T06:57:04.253Z,36.80
2023-03-05T07:02:07.669Z,36.90
2023-03-05T07:07:11.038Z,36.70
2023-03-05T07:12:15.572Z,36.80
2023-03-05T07:17:19.211Z,37.30
2023-03-05T07:22:22.343Z,37.30
2023-03-05T07:27:26.883Z,37.40
2023-03-05T07:32:30.090Z,37.50
2023-03-05T07:37:33.293Z,37.50
2023-03-05T07:42:37.768Z,37.20
2023-03-05T07:47:40.907Z,37.40
2023-03-05T07:52:44.052Z,37.10
2023-03-05T07:57:48.520Z,37.00
2023-03-05T08:02:51.743Z,37.10
2023-03-05T08:07:54.832Z,37.00
2023-03-05T08:12:59.591Z,36.90
2023-03-05T08:18:02.688Z,37.20
2023-03-05T08:23:05.819Z,37.20
2023-03-05T08:28:10.303Z,37.20
2023-03-05T08:33:13.520Z,37.30
2023-03-05T08:38:16.645Z,37.20
2023-03-05T08:43:21.134Z,37.30
2023-03-05T08:48:24.349Z,37.60
2023-03-05T08:53:27.486Z,37.40
2023-03-05T08:58:32.259Z,37.30
2023-03-05T09:03:35.800Z,37.40
2023-03-05T09:08:39.214Z,37.40
2023-03-05T09:13:43.713Z,37.40
2023-03-05T09:18:47.028Z,38.40
2023-03-05T09:23:50.127Z,37.50
2023-03-05T09:28:54.707Z,37.70
2023-03-05T09:33:57.813Z,38.10
2023-03-05T09:39:00.953Z,37.80
2023-03-05T09:44:23.472Z,37.80
2023-03-05T09:49:36.878Z,38.20
2023-03-05T09:54:43.022Z,38.30
2023-03-05T09:59:51.522Z,37.70
2023-03-05T10:05:01.319Z,37.90
2023-03-05T10:10:10.523Z,37.90
2023-03-05T10:15:17.623Z,37.60
2023-03-05T10:20:46.147Z,37.90
2023-03-05T10:25:59.348Z,38.00
2023-03-05T10:31:14.877Z,38.40
2023-03-05T10:36:46.960Z,38.40
2023-03-05T10:42:05.950Z,38.10
2023-03-05T10:47:17.999Z,38.10
2023-03-05T10:52:25.709Z,38.00
2023-03-05T10:57:31.908Z,37.60
2023-03-05T11:02:58.148Z,37.60
2023-03-05T11:08:01.268Z,37.70
2023-03-05T11:13:26.392Z,37.30
2023-03-05T11:18:34.609Z,37.60
2023-03-05T11:23:37.768Z,37.10
2023-03-05T11:28:43.186Z,37.10
2023-03-05T11:33:58.565Z,37.30
2023-03-05T11:39:11.609Z,37.40
2023-03-05T11:44:17.132Z,37.60
2023-03-05T11:49:26.744Z,37.40
2023-03-05T11:54:34.765Z,37.60
2023-03-05T11:59:40.732Z,37.40
2023-03-05T12:04:45.247Z,37.20
2023-03-05T12:09:50.649Z,37.20
2023-03-05T12:14:59.534Z,37.30
2023-03-05T12:20:09.288Z,37.10
2023-03-05T12:25:26.718Z,37.10
2023-03-05T12:30:56.094Z,37.10
2023-03-05T12:36:32.227Z,36.90
2023-03-05T12:41:37.649Z,36.80
2023-03-05T12:46:41.580Z,36.80
2023-03-05T12:51:46.007Z,36.70
2023-03-05T12:56:51.681Z,36.40
2023-03-05T13:01:58.599Z,36.40
2023-03-05T13:07:04.270Z,36.30
2023-03-05T13:12:14.552Z,36.20
2023-03-05T13:17:39.298Z,36.00
2023-03-05T13:22:42.404Z,34.60
2023-03-05T13:27:46.952Z,35.60
2023-03-05T13:32:52.990Z,35.50
2023-03-05T13:37:56.409Z,35.20
2023-03-05T13:43:13.663Z,35.10
2023-03-05T13:48:20.920Z,34.10
2023-03-05T13:53:26.121Z,34.60
2023-03-05T13:58:52.430Z,34.40
2023-03-05T14:03:57.903Z,33.20
2023-03-05T14:09:08.760Z,34.00
2023-03-05T14:14:19.131Z,33.40
2023-03-05T14:19:37.912Z,33.30
2023-03-05T14:24:41.294Z,32.80
2023-03-05T14:29:47.950Z,34.10
2023-03-05T14:34:55.890Z,33.70
2023-03-05T14:40:01.235Z,34.30
2023-03-05T14:45:14.152Z,33.90
2023-03-05T14:50:18.630Z,33.60
2023-03-05T14:55:24.544Z,34.20
2023-03-05T15:00:29.499Z,33.90
2023-03-05T15:05:33.174Z,33.90
2023-03-05T15:10:36.331Z,33.90
2023-03-05T15:15:42.410Z,33.70
2023-03-05T15:20:47.848Z,33.40
2023-03-05T15:25:52.059Z,33.70
2023-03-05T15:30:58.261Z,34.00
2023-03-05T15:36:03.693Z,34.10
2023-03-05T15:41:06.986Z,34.10
2023-03-05T15:46:11.548Z,34.20
2023-03-05T15:51:14.744Z,34.10
2023-03-05T15:56:18.157Z,34.20
2023-03-05T16:01:23.533Z,34.20
2023-03-05T16:06:27.076Z,33.90
2023-03-05T16:11:32.013Z,33.90
2023-03-05T16:16:37.591Z,33.90
2023-03-05T16:21:40.850Z,33.80
2023-03-05T16:26:44.186Z,34.10
2023-03-05T16:31:48.902Z,35.20
2023-03-05T16:36:53.215Z,34.10
2023-03-05T16:41:57.774Z,33.90
2023-03-05T16:47:02.527Z,34.20
2023-03-05T16:52:18.429Z,33.90
2023-03-05T16:57:24.035Z,34.00
2023-03-05T17:02:28.522Z,34.10
2023-03-05T17:07:31.658Z,34.00
2023-03-05T17:12:34.729Z,34.00
2023-03-05T17:17:40.589Z,34.00
2023-03-05T17:22:44.021Z,33.80
2023-03-05T17:27:47.278Z,34.00
2023-03-05T17:32:54.694Z,34.00
2023-03-05T17:37:57.916Z,33.70
2023-03-05T17:43:01.080Z,34.10
2023-03-05T17:48:05.765Z,35.00
2023-03-05T17:53:09.686Z,35.00
2023-03-05T17:58:12.801Z,34.80
2023-03-05T18:03:17.261Z,34.70
2023-03-05T18:08:20.525Z,34.40
2023-03-05T18:13:23.678Z,34.40
2023-03-05T18:18:28.200Z,34.50
2023-03-05T18:23:31.279Z,34.40
2023-03-05T18:28:34.342Z,34.50
2023-03-05T18:33:39.692Z,34.50
2023-03-05T18:38:42.776Z,34.40
2023-03-05T18:43:45.892Z,34.50
2023-03-05T18:48:50.410Z,34.60
2023-03-05T18:53:55.120Z,34.70
2023-03-05T18:58:59.023Z,34.70
2023-03-05T19:04:04.506Z,34.70
2023-03-05T19:09:58.956Z,34.60
2023-03-05T19:15:03.892Z,34.60
2023-03-05T19:20:12.238Z,34.70
2023-03-05T19:25:15.417Z,34.60
2023-03-05T19:30:18.865Z,34.70
2023-03-05T19:35:23.476Z,34.70
2023-03-05T19:40:26.694Z,34.80
2023-03-05T19:45:33.752Z,34.60
2023-03-05T19:50:38.232Z,34.40
2023-03-05T19:55:41.717Z,34.60
2023-03-05T20:00:44.798Z,34.70
2023-03-05T20:05:49.386Z,34.70
2023-03-05T20:10:52.547Z,34.70
2023-03-05T20:15:56.070Z,34.80
2023-03-05T20:21:02.860Z,34.80
2023-03-05T20:26:06.785Z,34.70
2023-03-05T20:31:10.032Z,34.80
2023-03-05T20:36:14.593Z,34.80
2023-03-05T20:41:21.825Z,34.80
2023-03-05T20:46:26.757Z,34.80
2023-03-05T20:51:35.122Z,34.80
2023-03-05T20:56:38.812Z,34.90
2023-03-05T21:01:42.090Z,34.90
2023-03-05T21:06:46.700Z,34.80
2023-03-05T21:11:50.131Z,34.90
2023-03-05T21:16:53.305Z,34.90
2023-03-05T21:21:58.027Z,35.00
2023-03-05T21:27:01.177Z,34.90
2023-03-05T21:32:04.914Z,34.70
2023-03-05T21:37:09.538Z,34.80
2023-03-05T21:42:13.430Z,34.80
2023-03-05T21:47:16.519Z,34.80
2023-03-05T21:52:22.508Z,34.80
2023-03-05T21:57:27.737Z,34.80
2023-03-05T22:02:30.900Z,35.10
2023-03-05T22:07:35.666Z,35.00
2023-03-05T22:13:14.637Z,35.00
2023-03-05T22:18:19.211Z,35.50
2023-03-05T22:23:27.218Z,34.80
2023-03-05T22:28:30.956Z,34.80
2023-03-05T22:33:34.139Z,35.10
2023-03-05T22:38:38.766Z,34.60
2023-03-05T22:43:42.387Z,34.70
2023-03-05T22:48:46.228Z,34.80
2023-03-05T22:53:50.834Z,34.80
2023-03-05T22:58:54.159Z,34.70
2023-03-05T23:04:50.174Z,34.80
2023-03-05T23:09:56.427Z,34.80
2023-03-05T23:15:00.810Z,34.80
2023-03-05T23:20:05.511Z,34.90
2023-03-05T23:25:10.919Z,34.90
2023-03-05T23:30:20.606Z,34.70
2023-03-05T23:35:25.823Z,34.80
2023-03-05T23:40:33.728Z,34.80
2023-03-05T23:45:36.960Z,34.80
2023-03-05T23:50:42.466Z,34.90
2023-03-05T23:55:48.054Z,34.90
